Flight Track Log - Related Links

Times and Time Zones

All times are in EDT time to prevent confusion due to time zone crossing. See the N616GB flight status page for this flight to view local times or setup timezone preferences in your user account.

Time Position Orientation Groundspeed Altitude Reporting Facility
EDT Latitude Longitude Course Direction KTS MPH feet Rate Location/Type
Thu 08:39:42 PM 43.2033 -95.3181 288° West 205 236 4,300  Level Minneapolis Center
Thu 08:40:43 PM 43.2181 -95.3794 288° West 209 241 6,000 1,742 Climbing Minneapolis Center
Thu 08:41:46 PM 43.2433 -95.4658 292° West 207 238 7,900 960 Climbing Minneapolis Center
Thu 08:42:48 PM 43.2692 -95.5444 294° West 215 247 8,000 48 Climbing Minneapolis Center
Thu 08:43:50 PM 43.2950 -95.6347 291° West 236 272 8,000  Level Minneapolis Center
Thu 08:44:52 PM 43.3153 -95.7286 287° West 251 289 8,000  Level Minneapolis Center
Thu 08:45:54 PM 43.3433 -95.8372 290° West 252 290 8,000  Level Minneapolis Center
Thu 08:46:56 PM 43.3658 -95.9233 290° West 246 283 8,000  Level Minneapolis Center
Thu 08:47:58 PM 43.3892 -96.0092 291° West 244 281 8,000  Level Minneapolis Center
Thu 08:49:00 PM 43.4111 -96.0939 290° West 240 276 8,000  Level Minneapolis Center
Thu 08:50:02 PM 43.4328 -96.1797 289° West 238 274 8,000 -484 Level Minneapolis Center
Thu 08:51:04 PM 43.4564 -96.2603 292° West 234 269 7,000 -1,113 Descending Minneapolis Center
Thu 08:52:06 PM 43.4792 -96.3422 291° West 230 265 5,700 -1,161 Descending Minneapolis Center
Thu 08:53:08 PM 43.5267 -96.4225 309° West 239 275 4,600 -528 Descending Minneapolis Center
Thu 08:54:11 PM 43.5811 -96.4408 346° North 216 249 4,600  Level Minneapolis Center
Thu 08:55:13 PM 43.6317 -96.4575 347° North 201 231 4,600  Level Minneapolis Center
Thu 08:56:15 PM 43.6825 -96.4772 344° North 193 222 4,600  Level Minneapolis Center
Thu 08:57:17 PM 43.7314 -96.4969 344° North 188 216 4,600  Level Minneapolis Center
Thu 08:58:19 PM 43.7797 -96.5308 333° Northwest 190 219 4,600  Level Minneapolis Center
Thu 08:59:21 PM 43.8225 -96.6011 310° West 200 230 4,600  Level Minneapolis Center
Thu 09:00:23 PM 43.8456 -96.6728 294° West 204 235 4,600  Level Minneapolis Center
Thu 09:01:37 PM 43.8217 -96.7381 243° Southwest 198 228 4,600 -176 Level Minneapolis Center
Thu 09:02:39 PM 43.7828 -96.7983 228° Southwest 184 212 4,200 -339 Descending Minneapolis Center
Thu 09:03:41 PM 43.7428 -96.8381 216° Southwest 178 205 3,900 -576 Descending Minneapolis Center
Thu 09:04:44 PM 43.6933 -96.8153 162° South 163 188 3,000 -576 Descending Minneapolis Center
Thu 09:05:46 PM 43.6567 -96.7872 151° Southeast 160 184 2,700 -439 Descending Minneapolis Center
Thu 09:06:47 PM 43.6317 -96.7692 152° Southeast 149 171 2,100 -529 Descending Minneapolis Center
Thu 09:08:02 PM 43.5958 -96.7475 156° South 132 152 1,500 -480 Descending Minneapolis Center

Login

Don't have an account? Register now (free) for customized features, flight alerts, and more!